Genoa, Nevada
Current Conditions -  °F | °C
As of 7:15 AM on Wednesday 26 Nov 2014 (Local Time) from KMEV Reporting Station
Clear Clear  
Wind Chill: 19°   Ceiling: Unl
Heat Index: 19°   Visibility: 10mi
Dew Point: 14°   Wind: 3mph
Humidity: 80%   Direction: 90°E
Pressure: 30.47"   Gusts: NA
Location:  39°N, 119.85°W
Report Text: KMEV 261515Z AUTO 09003KT 10SM CLR M07/M10 A3047 RMK AO2
Loading
Personal Weather Stations






























Interactive Weather Map New forecast layout! Learn more

10-Day Weather Forecast

Advertisements
Track Severe Weather on mobile